createdAt,value
2023-02-23T00:00:28.469Z,53.10
2023-02-23T00:01:30.528Z,53.48
2023-02-23T00:02:32.288Z,53.24
2023-02-23T00:03:34.365Z,53.09
2023-02-23T00:04:36.528Z,53.01
2023-02-23T00:05:38.376Z,53.01
2023-02-23T00:06:40.226Z,53.19
2023-02-23T00:07:45.440Z,52.72
2023-02-23T00:08:49.992Z,52.69
2023-02-23T00:09:52.921Z,52.71
2023-02-23T00:10:58.639Z,52.82
2023-02-23T00:12:07.497Z,52.82
2023-02-23T00:13:11.114Z,52.91
2023-02-23T00:14:12.865Z,53.15
2023-02-23T00:15:15.646Z,53.19
2023-02-23T00:16:22.761Z,52.91
2023-02-23T00:17:24.613Z,53.09
2023-02-23T00:18:30.194Z,53.09
2023-02-23T00:19:33.601Z,53.17
2023-02-23T00:20:35.609Z,53.18
2023-02-23T00:21:37.810Z,53.26
2023-02-23T00:22:40.438Z,53.31
2023-02-23T00:23:43.536Z,53.49
2023-02-23T00:24:47.740Z,53.41
2023-02-23T00:25:49.605Z,53.53
2023-02-23T00:26:51.767Z,53.47
2023-02-23T00:27:54.901Z,53.53
2023-02-23T00:28:58.349Z,53.68
2023-02-23T00:30:00.183Z,53.52
2023-02-23T00:31:02.946Z,53.40
2023-02-23T00:32:05.039Z,53.39
2023-02-23T00:33:07.468Z,53.29
2023-02-23T00:34:10.669Z,53.23
2023-02-23T00:35:17.524Z,53.13
2023-02-23T00:36:21.652Z,53.05
2023-02-23T00:37:23.506Z,53.13
2023-02-23T00:38:25.649Z,53.48
2023-02-23T00:39:29.370Z,53.64
2023-02-23T00:40:31.291Z,53.52
2023-02-23T00:41:33.101Z,53.39
2023-02-23T00:42:35.867Z,53.43
2023-02-23T00:43:39.732Z,53.39
2023-02-23T00:44:42.312Z,53.22
2023-02-23T00:45:44.205Z,53.09
2023-02-23T00:46:51.799Z,53.06
2023-02-23T00:47:53.900Z,53.05
2023-02-23T00:48:58.510Z,53.12
2023-02-23T00:50:00.393Z,53.15
2023-02-23T00:51:04.830Z,53.16
2023-02-23T00:52:06.600Z,53.18
2023-02-23T00:53:11.240Z,53.48
2023-02-23T00:54:14.422Z,53.40
2023-02-23T00:55:16.310Z,53.75
2023-02-23T00:56:18.154Z,53.88
2023-02-23T00:57:20.132Z,53.87
2023-02-23T00:58:23.346Z,53.84
2023-02-23T00:59:25.225Z,53.87
2023-02-23T01:00:27.054Z,53.94
2023-02-23T01:01:29.344Z,53.97
2023-02-23T01:02:31.411Z,53.88
2023-02-23T01:03:33.545Z,53.67
2023-02-23T01:04:35.438Z,53.50
2023-02-23T01:05:37.267Z,53.32
2023-02-23T01:06:41.401Z,53.41
2023-02-23T01:07:46.497Z,53.40
2023-02-23T01:08:50.769Z,54.01
2023-02-23T01:09:52.562Z,54.07
2023-02-23T01:10:54.763Z,54.12
2023-02-23T01:11:57.276Z,54.11
2023-02-23T01:12:59.153Z,54.20
2023-02-23T01:14:01.927Z,53.89
2023-02-23T01:15:03.873Z,53.51
2023-02-23T01:16:07.701Z,53.24
2023-02-23T01:17:09.599Z,53.18
2023-02-23T01:18:11.934Z,53.15
2023-02-23T01:19:14.134Z,53.29
2023-02-23T01:20:20.185Z,53.51
2023-02-23T01:21:31.240Z,54.30
2023-02-23T01:22:33.014Z,54.16
2023-02-23T01:23:34.799Z,54.20
2023-02-23T01:24:38.621Z,54.23
2023-02-23T01:25:42.945Z,54.09
2023-02-23T01:26:45.638Z,54.34
2023-02-23T01:27:47.650Z,54.27
2023-02-23T01:28:50.555Z,54.45
2023-02-23T01:29:54.834Z,54.49
2023-02-23T01:30:56.951Z,54.47
2023-02-23T01:31:58.746Z,54.28
2023-02-23T01:33:02.567Z,54.29
2023-02-23T01:34:06.030Z,54.30
2023-02-23T01:35:10.299Z,54.39
2023-02-23T01:36:15.796Z,54.77
2023-02-23T01:37:17.608Z,55.08
2023-02-23T01:38:19.456Z,55.14
2023-02-23T01:39:21.425Z,54.86
2023-02-23T01:40:30.486Z,54.71
2023-02-23T01:41:33.154Z,54.77
2023-02-23T01:42:38.597Z,54.65
2023-02-23T01:44:05.139Z,54.56
2023-02-23T01:45:36.397Z,54.71
2023-02-23T01:46:41.187Z,54.79
2023-02-23T01:47:43.164Z,54.52
2023-02-23T01:48:45.249Z,54.33
2023-02-23T01:49:47.784Z,54.48
2023-02-23T01:51:08.404Z,54.60
2023-02-23T01:52:14.335Z,54.53
2023-02-23T01:53:17.341Z,54.65
2023-02-23T01:54:23.680Z,54.59
2023-02-23T01:55:26.960Z,54.81
2023-02-23T01:56:36.621Z,54.82
2023-02-23T01:57:40.346Z,55.02
2023-02-23T01:58:46.733Z,54.92
2023-02-23T01:59:49.950Z,55.01
2023-02-23T02:00:57.579Z,55.02
2023-02-23T02:01:59.333Z,55.09
2023-02-23T02:03:08.702Z,55.13
2023-02-23T02:04:16.529Z,55.46
2023-02-23T02:05:18.986Z,55.28
2023-02-23T02:06:23.394Z,55.33
2023-02-23T02:07:28.409Z,55.24
2023-02-23T02:08:31.745Z,55.13
2023-02-23T02:09:37.905Z,55.14
2023-02-23T02:10:39.833Z,55.26
2023-02-23T02:11:44.591Z,55.41
2023-02-23T02:12:54.108Z,55.38
2023-02-23T02:13:59.258Z,55.54
2023-02-23T02:15:04.979Z,55.69
2023-02-23T02:16:29.047Z,55.78
2023-02-23T02:17:48.623Z,55.62
2023-02-23T02:19:16.831Z,55.41
2023-02-23T02:20:33.387Z,55.41
2023-02-23T02:22:15.297Z,55.15
2023-02-23T02:23:36.973Z,55.31
2023-02-23T02:25:00.778Z,55.26
2023-02-23T02:26:15.868Z,55.22
2023-02-23T02:27:36.561Z,55.21
2023-02-23T02:28:59.741Z,55.01
2023-02-23T02:30:28.175Z,55.23
2023-02-23T02:31:52.396Z,55.33
2023-02-23T02:33:21.601Z,55.39
2023-02-23T02:34:23.313Z,55.16
2023-02-23T02:35:27.893Z,55.44
2023-02-23T02:36:51.306Z,55.36
2023-02-23T02:38:17.839Z,55.47
2023-02-23T02:39:44.867Z,55.25
2023-02-23T02:40:58.962Z,55.46
2023-02-23T02:42:26.966Z,55.54
2023-02-23T02:43:42.889Z,55.52
2023-02-23T02:44:44.675Z,55.43
2023-02-23T02:46:07.845Z,55.53
2023-02-23T02:47:17.682Z,55.60
2023-02-23T02:48:42.383Z,55.68
2023-02-23T02:49:50.458Z,55.75
2023-02-23T02:50:59.270Z,55.67
2023-02-23T02:52:06.852Z,55.56
2023-02-23T02:53:11.145Z,55.57
2023-02-23T02:54:25.183Z,55.67
2023-02-23T02:55:29.585Z,55.49
2023-02-23T02:56:33.504Z,55.28
2023-02-23T02:57:36.352Z,55.55
2023-02-23T02:58:39.100Z,55.46
2023-02-23T03:00:04.264Z,55.61
2023-02-23T03:01:32.348Z,56.00
2023-02-23T03:02:56.239Z,56.24
2023-02-23T03:04:18.618Z,56.34
2023-02-23T03:05:41.714Z,56.32
2023-02-23T03:07:27.985Z,56.55
2023-02-23T03:09:20.825Z,56.24
2023-02-23T03:11:01.522Z,55.81
2023-02-23T03:12:40.760Z,56.09
2023-02-23T03:14:06.909Z,56.58
2023-02-23T03:15:51.105Z,56.63
2023-02-23T03:17:22.249Z,56.58
2023-02-23T03:19:03.472Z,56.62
2023-02-23T03:20:46.232Z,56.45
2023-02-23T03:22:26.348Z,56.61
2023-02-23T03:23:59.021Z,56.66
2023-02-23T03:25:25.312Z,56.53
2023-02-23T03:26:53.882Z,56.32
2023-02-23T03:28:41.027Z,56.48
2023-02-23T03:30:44.078Z,56.38
2023-02-23T03:32:09.842Z,56.56
2023-02-23T03:33:36.563Z,56.60
2023-02-23T03:35:04.812Z,56.82
2023-02-23T03:36:30.936Z,56.74
2023-02-23T03:38:01.007Z,56.55
2023-02-23T03:39:40.757Z,56.26
2023-02-23T03:41:02.241Z,56.51
2023-02-23T03:42:28.259Z,56.87
2023-02-23T03:43:54.823Z,57.14
2023-02-23T03:45:16.912Z,56.92
2023-02-23T03:46:38.802Z,56.82
2023-02-23T03:48:00.922Z,56.88
2023-02-23T03:49:24.994Z,56.73
2023-02-23T03:50:53.812Z,56.89
2023-02-23T03:52:25.030Z,57.02
2023-02-23T03:53:55.081Z,57.10
2023-02-23T03:55:19.451Z,56.93
2023-02-23T03:56:44.838Z,56.72
2023-02-23T03:58:10.325Z,56.89
2023-02-23T03:59:32.951Z,56.72
2023-02-23T04:00:58.437Z,56.71
2023-02-23T04:02:20.152Z,56.76
2023-02-23T04:03:40.645Z,56.79
2023-02-23T04:05:03.683Z,56.96
2023-02-23T04:06:27.294Z,56.88
2023-02-23T04:07:48.100Z,56.75
2023-02-23T04:09:09.631Z,56.61
2023-02-23T04:10:31.200Z,56.75
2023-02-23T04:12:09.692Z,56.64
2023-02-23T04:13:19.283Z,56.64
2023-02-23T04:14:31.045Z,56.55
2023-02-23T04:15:39.351Z,56.64
2023-02-23T04:16:42.028Z,56.56
2023-02-23T04:17:44.693Z,56.53
2023-02-23T04:18:46.740Z,56.49
2023-02-23T04:19:52.682Z,56.39
2023-02-23T04:20:56.110Z,56.70
2023-02-23T04:21:58.024Z,56.48
2023-02-23T04:22:59.838Z,56.47
2023-02-23T04:24:01.660Z,56.55
2023-02-23T04:25:03.800Z,56.56
2023-02-23T04:26:05.758Z,56.84
2023-02-23T04:27:07.630Z,56.72
2023-02-23T04:28:09.800Z,56.93
2023-02-23T04:29:12.620Z,56.76
2023-02-23T04:30:14.489Z,56.80
2023-02-23T04:31:18.765Z,56.73
2023-02-23T04:32:21.140Z,56.84
2023-02-23T04:33:25.008Z,56.94
2023-02-23T04:34:26.793Z,56.88
2023-02-23T04:35:30.006Z,56.83
2023-02-23T04:36:31.833Z,56.86
2023-02-23T04:37:33.739Z,56.77
2023-02-23T04:38:35.837Z,57.08
2023-02-23T04:39:37.684Z,56.89
2023-02-23T04:40:39.662Z,56.68
2023-02-23T04:41:41.476Z,56.74
2023-02-23T04:42:43.362Z,56.72
2023-02-23T04:43:45.193Z,56.66
2023-02-23T04:44:47.264Z,56.97
2023-02-23T04:45:49.407Z,57.02
2023-02-23T04:46:51.244Z,57.04
2023-02-23T04:47:53.761Z,57.19
2023-02-23T04:48:55.948Z,57.22
2023-02-23T04:49:57.879Z,57.25
2023-02-23T04:50:59.893Z,57.13
2023-02-23T04:52:01.974Z,57.09
2023-02-23T04:53:03.797Z,57.22
2023-02-23T04:54:05.693Z,57.43
2023-02-23T04:55:08.949Z,57.67
2023-02-23T04:56:12.044Z,57.86
2023-02-23T04:57:14.289Z,57.93
2023-02-23T04:58:16.270Z,57.96
2023-02-23T04:59:18.507Z,58.03
2023-02-23T05:00:20.543Z,58.00
2023-02-23T05:01:22.608Z,57.95
2023-02-23T05:02:25.106Z,58.12
2023-02-23T05:03:27.264Z,58.06
2023-02-23T05:04:29.279Z,58.30
2023-02-23T05:05:31.563Z,58.24
2023-02-23T05:06:33.475Z,58.26
2023-02-23T05:07:36.666Z,58.30
2023-02-23T05:08:38.787Z,58.40
2023-02-23T05:09:41.335Z,58.52
2023-02-23T05:10:43.716Z,58.65
2023-02-23T05:11:46.293Z,58.74
2023-02-23T05:12:48.054Z,58.74
2023-02-23T05:13:49.892Z,58.69
2023-02-23T05:14:51.631Z,58.68
2023-02-23T05:15:57.804Z,58.54
2023-02-23T05:16:59.689Z,58.48
2023-02-23T05:18:01.501Z,58.49
2023-02-23T05:19:09.364Z,58.68
2023-02-23T05:20:12.588Z,58.85
2023-02-23T05:21:14.499Z,58.86
2023-02-23T05:22:16.297Z,58.96
2023-02-23T05:23:18.720Z,59.12
2023-02-23T05:24:20.917Z,59.33
2023-02-23T05:25:22.766Z,59.27
2023-02-23T05:26:24.759Z,59.26
2023-02-23T05:27:26.540Z,59.30
2023-02-23T05:28:28.797Z,59.34
2023-02-23T05:29:30.711Z,59.40
2023-02-23T05:30:33.208Z,59.57
2023-02-23T05:31:35.248Z,59.21
2023-02-23T05:32:37.186Z,59.12
2023-02-23T05:33:45.831Z,59.12
2023-02-23T05:34:47.688Z,59.24
2023-02-23T05:35:49.539Z,59.49
2023-02-23T05:36:51.836Z,59.56
2023-02-23T05:37:53.767Z,59.32
2023-02-23T05:38:56.102Z,59.26
2023-02-23T05:39:57.872Z,59.51
2023-02-23T05:41:00.014Z,59.29
2023-02-23T05:42:01.907Z,59.22
2023-02-23T05:43:03.717Z,59.12
2023-02-23T05:44:05.596Z,59.11
2023-02-23T05:45:07.867Z,59.33
2023-02-23T05:46:11.847Z,59.28
2023-02-23T05:47:13.679Z,59.19
2023-02-23T05:48:15.742Z,59.14
2023-02-23T05:49:17.658Z,59.15
2023-02-23T05:50:19.505Z,59.05
2023-02-23T05:51:21.670Z,58.93
2023-02-23T05:52:24.644Z,58.89
2023-02-23T05:53:26.499Z,58.92
2023-02-23T05:54:28.476Z,58.83
2023-02-23T05:55:31.771Z,59.05
2023-02-23T05:56:33.979Z,58.93
2023-02-23T05:57:36.304Z,58.73
2023-02-23T05:58:38.128Z,58.73
2023-02-23T05:59:40.300Z,58.62
2023-02-23T06:00:42.417Z,58.70
2023-02-23T06:01:44.488Z,58.85
2023-02-23T06:02:46.443Z,58.82
2023-02-23T06:03:48.921Z,58.74
2023-02-23T06:04:51.128Z,58.61
2023-02-23T06:05:55.311Z,58.53
2023-02-23T06:06:57.272Z,58.54
2023-02-23T06:07:59.223Z,58.59
2023-02-23T06:09:03.495Z,58.46
2023-02-23T06:10:06.548Z,58.45
2023-02-23T06:11:09.960Z,58.54
2023-02-23T06:12:11.901Z,58.38
2023-02-23T06:13:14.522Z,58.61
2023-02-23T06:14:16.468Z,58.74
2023-02-23T06:15:18.729Z,58.34
2023-02-23T06:16:21.129Z,58.38
2023-02-23T06:17:23.560Z,58.31
2023-02-23T06:18:26.614Z,58.07
2023-02-23T06:19:28.414Z,58.22
2023-02-23T06:20:30.284Z,57.98
2023-02-23T06:21:32.071Z,57.96
2023-02-23T06:22:34.343Z,58.11
2023-02-23T06:23:36.250Z,58.51
2023-02-23T06:24:38.016Z,58.34
2023-02-23T06:25:40.888Z,58.14
2023-02-23T06:26:44.422Z,58.30
2023-02-23T06:27:46.546Z,57.93
2023-02-23T06:28:48.636Z,57.72
2023-02-23T06:29:50.434Z,57.81
2023-02-23T06:30:53.805Z,57.70
2023-02-23T06:31:56.555Z,57.74
2023-02-23T06:32:59.332Z,57.61
2023-02-23T06:34:01.161Z,57.63
2023-02-23T06:35:03.665Z,57.77
2023-02-23T06:36:05.727Z,57.90
2023-02-23T06:37:09.245Z,57.58
2023-02-23T06:38:11.284Z,57.40
2023-02-23T06:39:13.312Z,57.45
2023-02-23T06:40:15.205Z,57.39
2023-02-23T06:41:20.677Z,57.25
2023-02-23T06:42:22.621Z,57.31
2023-02-23T06:43:24.450Z,57.31
2023-02-23T06:44:26.353Z,57.35
2023-02-23T06:45:28.327Z,57.22
2023-02-23T06:46:30.236Z,57.74
2023-02-23T06:47:32.113Z,57.54
2023-02-23T06:48:35.520Z,57.42
2023-02-23T06:49:37.550Z,57.41
2023-02-23T06:50:39.294Z,57.14
2023-02-23T06:51:41.120Z,57.10
2023-02-23T06:52:42.978Z,57.16
2023-02-23T06:53:44.941Z,57.13
2023-02-23T06:54:48.284Z,56.94
2023-02-23T06:55:50.035Z,56.89
2023-02-23T06:56:53.272Z,56.94
2023-02-23T06:57:55.090Z,57.02
2023-02-23T06:58:56.907Z,57.48
2023-02-23T06:59:59.244Z,57.52
2023-02-23T07:01:01.284Z,57.59
2023-02-23T07:02:05.774Z,57.74
2023-02-23T07:03:07.964Z,57.29
2023-02-23T07:04:11.282Z,57.05
2023-02-23T07:05:13.414Z,56.69
2023-02-23T07:06:15.329Z,56.60
2023-02-23T07:07:17.169Z,56.74
2023-02-23T07:08:19.301Z,56.91
2023-02-23T07:09:21.072Z,57.04
2023-02-23T07:10:23.050Z,56.76
2023-02-23T07:11:24.822Z,56.94
2023-02-23T07:12:26.687Z,57.07
2023-02-23T07:13:28.468Z,56.35
2023-02-23T07:14:30.340Z,56.03
2023-02-23T07:15:32.153Z,56.13
2023-02-23T07:16:34.140Z,56.12
2023-02-23T07:17:36.604Z,56.29
2023-02-23T07:18:38.455Z,56.47
2023-02-23T07:19:40.853Z,56.75
2023-02-23T07:20:43.038Z,56.63
2023-02-23T07:21:45.386Z,56.77
2023-02-23T07:22:47.230Z,56.82
2023-02-23T07:23:49.933Z,56.82
2023-02-23T07:24:51.975Z,56.49
2023-02-23T07:25:55.212Z,56.12
2023-02-23T07:26:57.083Z,56.32
2023-02-23T07:28:01.717Z,56.35
2023-02-23T07:29:03.732Z,56.60
2023-02-23T07:30:06.431Z,56.47
2023-02-23T07:31:08.418Z,56.26
2023-02-23T07:32:10.653Z,56.14
2023-02-23T07:33:12.857Z,56.25
2023-02-23T07:34:14.653Z,55.90
2023-02-23T07:35:16.738Z,55.97
2023-02-23T07:36:18.543Z,56.59
2023-02-23T07:37:21.536Z,56.17
2023-02-23T07:38:23.531Z,55.96
2023-02-23T07:39:25.704Z,55.83
2023-02-23T07:40:27.537Z,55.77
2023-02-23T07:41:29.454Z,55.78
2023-02-23T07:42:31.272Z,55.86
2023-02-23T07:43:33.300Z,55.54
2023-02-23T07:44:35.241Z,55.54
2023-02-23T07:45:37.465Z,55.93
2023-02-23T07:46:39.297Z,55.76
2023-02-23T07:47:41.178Z,55.86
2023-02-23T07:48:44.999Z,55.65
2023-02-23T07:49:47.082Z,55.28
2023-02-23T07:50:48.981Z,55.33
2023-02-23T07:51:50.829Z,55.40
2023-02-23T07:52:52.850Z,55.63
2023-02-23T07:53:55.234Z,55.47
2023-02-23T07:54:57.796Z,55.44
2023-02-23T07:56:00.861Z,55.66
2023-02-23T07:57:03.075Z,55.72
2023-02-23T07:58:06.177Z,56.09
2023-02-23T07:59:08.085Z,55.73
2023-02-23T08:00:11.701Z,55.17
2023-02-23T08:01:14.462Z,54.82
2023-02-23T08:02:16.700Z,54.71
2023-02-23T08:03:18.820Z,54.37
2023-02-23T08:04:20.767Z,54.65
2023-02-23T08:05:24.367Z,55.21
2023-02-23T08:06:27.347Z,54.78
2023-02-23T08:07:29.175Z,54.60
2023-02-23T08:08:31.170Z,55.14
2023-02-23T08:09:35.072Z,54.71
2023-02-23T08:10:38.282Z,54.51
2023-02-23T08:11:40.514Z,53.98
2023-02-23T08:12:42.415Z,54.10
2023-02-23T08:13:44.282Z,53.90
2023-02-23T08:14:46.261Z,53.78
2023-02-23T08:15:48.106Z,53.90
2023-02-23T08:16:51.639Z,53.93
2023-02-23T08:17:53.636Z,53.52
2023-02-23T08:19:00.095Z,53.76
2023-02-23T08:20:08.868Z,53.77
2023-02-23T08:21:10.998Z,53.19
2023-02-23T08:22:12.903Z,53.44
2023-02-23T08:23:16.986Z,53.59
2023-02-23T08:24:19.000Z,53.80
2023-02-23T08:25:21.278Z,54.67
2023-02-23T08:26:25.055Z,54.72
2023-02-23T08:27:26.876Z,54.45
2023-02-23T08:28:29.766Z,54.13
2023-02-23T08:29:32.041Z,53.71
2023-02-23T08:30:34.524Z,53.74
2023-02-23T08:31:36.868Z,52.80
2023-02-23T08:32:40.494Z,52.54
2023-02-23T08:33:42.481Z,52.92
2023-02-23T08:34:44.719Z,52.52
2023-02-23T08:35:46.535Z,52.42
2023-02-23T08:36:49.045Z,52.17
2023-02-23T08:37:51.494Z,51.92
2023-02-23T08:38:54.343Z,52.41
2023-02-23T08:39:57.113Z,52.33
2023-02-23T08:41:02.649Z,52.02
2023-02-23T08:42:05.139Z,51.57
2023-02-23T08:43:06.949Z,51.78
2023-02-23T08:44:08.911Z,51.94
2023-02-23T08:45:11.384Z,51.18
2023-02-23T08:46:13.482Z,51.13
2023-02-23T08:47:16.769Z,52.03
2023-02-23T08:48:19.358Z,52.18
2023-02-23T08:49:22.479Z,52.32
2023-02-23T08:50:27.022Z,51.78
2023-02-23T08:51:29.148Z,51.64
2023-02-23T08:52:31.493Z,54.43
2023-02-23T08:53:33.880Z,52.68
2023-02-23T08:54:35.721Z,52.66
2023-02-23T08:55:40.324Z,51.60
2023-02-23T08:56:42.459Z,51.35
2023-02-23T08:57:44.521Z,51.05
2023-02-23T08:58:46.490Z,50.16
2023-02-23T08:59:48.522Z,50.41
2023-02-23T09:00:50.551Z,50.63
2023-02-23T09:01:52.829Z,50.61
2023-02-23T09:02:54.806Z,50.13
2023-02-23T09:03:57.548Z,49.98
2023-02-23T09:04:59.615Z,50.22
2023-02-23T09:06:08.373Z,50.15
2023-02-23T09:07:15.232Z,50.07
2023-02-23T09:08:18.247Z,51.09
2023-02-23T09:09:20.023Z,50.06
2023-02-23T09:10:24.938Z,49.38
2023-02-23T09:11:26.911Z,49.63
2023-02-23T09:12:29.194Z,49.59
2023-02-23T09:13:31.234Z,49.22
2023-02-23T09:14:33.017Z,49.19
2023-02-23T09:15:34.865Z,49.62
2023-02-23T09:16:36.995Z,49.94
2023-02-23T09:17:39.179Z,49.90
2023-02-23T09:18:41.821Z,49.80
2023-02-23T09:19:43.835Z,49.48
2023-02-23T09:20:45.807Z,49.72
2023-02-23T09:21:47.689Z,49.69
2023-02-23T09:22:49.484Z,49.53
2023-02-23T09:23:52.919Z,49.30
2023-02-23T09:24:54.765Z,49.27
2023-02-23T09:25:56.622Z,49.44
2023-02-23T09:26:58.525Z,49.56
2023-02-23T09:28:03.833Z,50.01
2023-02-23T09:29:06.975Z,50.40
2023-02-23T09:30:09.764Z,50.32
2023-02-23T09:31:17.144Z,50.58
2023-02-23T09:32:19.363Z,50.10
2023-02-23T09:33:21.380Z,49.41
2023-02-23T09:34:23.263Z,49.15
2023-02-23T09:35:25.502Z,48.97
2023-02-23T09:36:27.849Z,49.48
2023-02-23T09:37:31.881Z,49.70
2023-02-23T09:38:36.552Z,48.94
2023-02-23T09:39:39.734Z,49.52
2023-02-23T09:40:53.881Z,48.56
2023-02-23T09:42:10.676Z,47.92
2023-02-23T09:43:26.641Z,48.52
2023-02-23T09:44:48.643Z,48.03
2023-02-23T09:46:24.353Z,49.34
2023-02-23T09:47:36.367Z,49.06
2023-02-23T09:48:38.495Z,46.97
2023-02-23T09:49:42.906Z,48.79
2023-02-23T09:50:51.797Z,46.31
2023-02-23T09:51:59.771Z,45.57
2023-02-23T09:53:22.004Z,46.89
2023-02-23T09:54:27.225Z,47.00
2023-02-23T09:55:30.338Z,46.42
2023-02-23T09:56:46.763Z,47.54
2023-02-23T09:57:52.004Z,46.64
2023-02-23T09:58:54.443Z,45.79
2023-02-23T09:59:56.710Z,45.19
2023-02-23T10:01:24.660Z,44.48
2023-02-23T10:02:31.032Z,44.29
2023-02-23T10:03:40.432Z,44.08
2023-02-23T10:05:01.080Z,44.64
2023-02-23T10:06:08.178Z,45.15
2023-02-23T10:07:36.611Z,44.99
2023-02-23T10:08:51.519Z,44.27
2023-02-23T10:10:18.063Z,44.73
2023-02-23T10:11:41.925Z,44.14
2023-02-23T10:13:09.607Z,44.24
2023-02-23T10:14:36.726Z,44.66
2023-02-23T10:16:18.653Z,44.17
2023-02-23T10:17:23.387Z,44.49
2023-02-23T10:19:01.984Z,44.28
2023-02-23T10:20:32.621Z,44.20
2023-02-23T10:21:42.915Z,44.24
2023-02-23T10:22:50.104Z,43.67
2023-02-23T10:23:56.005Z,43.93
2023-02-23T10:25:06.739Z,43.48
2023-02-23T10:26:19.211Z,43.16
2023-02-23T10:27:24.965Z,43.28
2023-02-23T10:28:35.056Z,44.50
2023-02-23T10:29:53.209Z,43.82
2023-02-23T10:30:56.129Z,44.66
2023-02-23T10:32:06.587Z,43.51
2023-02-23T10:33:35.970Z,44.15
2023-02-23T10:34:39.759Z,43.78
2023-02-23T10:35:41.852Z,42.90
2023-02-23T10:37:05.406Z,42.99
2023-02-23T10:38:15.376Z,42.29
2023-02-23T10:39:17.700Z,41.88
2023-02-23T10:40:27.761Z,41.78
2023-02-23T10:41:30.244Z,43.49
2023-02-23T10:42:32.381Z,43.78
2023-02-23T10:43:34.305Z,42.10
2023-02-23T10:44:36.076Z,40.89
2023-02-23T10:45:44.605Z,41.06
2023-02-23T10:46:52.819Z,41.34
2023-02-23T10:48:06.715Z,41.05
2023-02-23T10:49:18.915Z,41.38
2023-02-23T10:50:27.507Z,40.73
2023-02-23T10:51:34.832Z,41.09
2023-02-23T10:52:51.622Z,40.79
2023-02-23T10:53:53.620Z,40.35
2023-02-23T10:54:55.603Z,41.14
2023-02-23T10:56:13.846Z,41.85
2023-02-23T10:57:29.149Z,42.32
2023-02-23T10:58:49.964Z,42.31
2023-02-23T11:00:03.261Z,41.59
2023-02-23T11:01:10.714Z,41.12
2023-02-23T11:02:26.398Z,41.29
2023-02-23T11:03:31.124Z,41.17
2023-02-23T11:04:35.228Z,40.90
2023-02-23T11:05:51.347Z,41.43
2023-02-23T11:07:10.057Z,42.00
2023-02-23T11:08:25.412Z,41.62
2023-02-23T11:09:45.664Z,41.28
2023-02-23T11:11:02.572Z,41.90
2023-02-23T11:12:16.864Z,42.64
2023-02-23T11:13:23.323Z,41.57
2023-02-23T11:14:29.032Z,41.64
2023-02-23T11:15:49.075Z,41.26
2023-02-23T11:16:52.012Z,40.45
2023-02-23T11:17:59.573Z,41.45
2023-02-23T11:19:03.573Z,40.44
2023-02-23T11:20:25.036Z,39.85
2023-02-23T11:21:41.093Z,40.95
2023-02-23T11:22:43.420Z,40.51
2023-02-23T11:23:45.360Z,40.58
2023-02-23T11:24:47.490Z,41.32
2023-02-23T11:25:51.912Z,41.50
2023-02-23T11:27:03.853Z,41.12
2023-02-23T11:28:05.808Z,40.33
2023-02-23T11:29:19.682Z,41.19
2023-02-23T11:30:27.901Z,40.51
2023-02-23T11:31:35.091Z,42.69
2023-02-23T11:32:39.008Z,40.63
2023-02-23T11:33:43.704Z,40.22
2023-02-23T11:35:34.349Z,41.32
2023-02-23T11:36:37.378Z,44.54
2023-02-23T11:37:41.778Z,43.00
2023-02-23T11:38:46.822Z,42.08
2023-02-23T11:39:52.690Z,41.57
2023-02-23T11:40:59.902Z,41.26
2023-02-23T11:42:19.338Z,42.45
2023-02-23T11:43:21.781Z,41.93
2023-02-23T11:44:28.183Z,40.62
2023-02-23T11:45:33.696Z,40.06
2023-02-23T11:46:38.280Z,40.00
2023-02-23T11:47:42.262Z,40.26
2023-02-23T11:49:08.551Z,41.50
2023-02-23T11:50:24.025Z,40.81
2023-02-23T11:51:33.040Z,39.55
2023-02-23T11:52:36.666Z,39.93
2023-02-23T11:53:45.479Z,39.67
2023-02-23T11:54:54.911Z,39.51
2023-02-23T11:56:02.693Z,39.75
2023-02-23T11:57:06.325Z,40.02
2023-02-23T11:58:10.889Z,39.88
2023-02-23T11:59:18.822Z,39.93
2023-02-23T12:00:27.878Z,40.73
2023-02-23T12:01:46.510Z,40.07
2023-02-23T12:03:00.754Z,39.90
2023-02-23T12:04:03.162Z,40.06
2023-02-23T12:05:24.538Z,39.90
2023-02-23T12:06:30.927Z,40.10
2023-02-23T12:07:42.077Z,39.97
2023-02-23T12:08:48.033Z,39.98
2023-02-23T12:09:59.718Z,40.84
2023-02-23T12:11:06.345Z,40.54
2023-02-23T12:12:16.788Z,40.26
2023-02-23T12:13:36.822Z,40.37
2023-02-23T12:14:52.130Z,40.11
2023-02-23T12:16:12.230Z,40.16
2023-02-23T12:17:26.959Z,40.69
2023-02-23T12:19:08.532Z,40.68
2023-02-23T12:20:19.190Z,40.10
2023-02-23T12:21:23.741Z,41.31
2023-02-23T12:22:35.475Z,40.70
2023-02-23T12:23:41.328Z,39.89
2023-02-23T12:24:50.692Z,39.69
2023-02-23T12:26:05.560Z,40.91
2023-02-23T12:27:12.977Z,41.14
2023-02-23T12:28:27.232Z,39.99
2023-02-23T12:29:56.855Z,40.57
2023-02-23T12:31:03.130Z,39.76
2023-02-23T12:32:27.259Z,40.90
2023-02-23T12:33:36.813Z,41.08
2023-02-23T12:35:00.472Z,40.74
2023-02-23T12:36:12.643Z,39.99
2023-02-23T12:37:29.353Z,39.68
2023-02-23T12:38:46.420Z,40.38
2023-02-23T12:39:53.535Z,39.02
2023-02-23T12:41:02.341Z,39.03
2023-02-23T12:42:23.404Z,40.56
2023-02-23T12:43:32.343Z,40.56
2023-02-23T12:44:43.053Z,39.62
2023-02-23T12:45:55.713Z,39.03
2023-02-23T12:47:04.838Z,38.74
2023-02-23T12:48:15.318Z,39.01
2023-02-23T12:49:34.121Z,39.12
2023-02-23T12:50:43.351Z,39.47
2023-02-23T12:51:57.208Z,39.33
2023-02-23T12:53:18.144Z,39.30
2023-02-23T12:54:20.068Z,39.77
2023-02-23T12:55:31.649Z,39.42
2023-02-23T12:56:50.955Z,39.19
2023-02-23T12:58:03.723Z,38.98
2023-02-23T12:59:41.917Z,39.13
2023-02-23T13:00:51.102Z,39.27
2023-02-23T13:02:00.933Z,39.65
2023-02-23T13:03:33.517Z,39.31
2023-02-23T13:04:47.270Z,40.65
2023-02-23T13:06:13.429Z,40.49
2023-02-23T13:07:50.383Z,41.47
2023-02-23T13:09:06.022Z,39.75
2023-02-23T13:10:26.026Z,39.22
2023-02-23T13:11:33.910Z,39.28
2023-02-23T13:12:46.310Z,39.09
2023-02-23T13:14:02.492Z,39.10
2023-02-23T13:15:28.568Z,39.18
2023-02-23T13:16:51.719Z,40.14
2023-02-23T13:18:11.200Z,39.85
2023-02-23T13:19:20.911Z,41.05
2023-02-23T13:20:27.748Z,39.15
2023-02-23T13:21:59.097Z,38.84
2023-02-23T13:23:04.027Z,38.75
2023-02-23T13:24:16.486Z,38.48
2023-02-23T13:25:38.579Z,38.43
2023-02-23T13:27:00.353Z,38.54
2023-02-23T13:28:03.499Z,38.32
2023-02-23T13:29:25.239Z,38.75
2023-02-23T13:30:32.435Z,38.01
2023-02-23T13:31:37.216Z,38.51
2023-02-23T13:32:39.385Z,38.71
2023-02-23T13:33:44.290Z,38.24
2023-02-23T13:34:53.730Z,38.68
2023-02-23T13:35:56.433Z,38.92
2023-02-23T13:37:01.257Z,38.88
2023-02-23T13:38:27.864Z,38.61
2023-02-23T13:39:36.095Z,38.84
2023-02-23T13:40:47.237Z,39.17
2023-02-23T13:42:08.105Z,38.55
2023-02-23T13:43:29.814Z,38.60
2023-02-23T13:44:44.193Z,39.42
2023-02-23T13:46:21.671Z,39.70
2023-02-23T13:47:45.646Z,39.27
2023-02-23T13:49:11.775Z,38.68
2023-02-23T13:50:25.317Z,38.77
2023-02-23T13:51:40.018Z,39.17
2023-02-23T13:52:44.372Z,39.40
2023-02-23T13:53:55.909Z,39.77
2023-02-23T13:55:03.689Z,39.56
2023-02-23T13:56:11.482Z,39.16
2023-02-23T13:57:17.670Z,39.30
2023-02-23T13:58:27.500Z,39.08
2023-02-23T13:59:36.685Z,39.02
2023-02-23T14:00:38.574Z,38.79
2023-02-23T14:01:44.891Z,39.01
2023-02-23T14:02:47.409Z,38.90
2023-02-23T14:04:04.929Z,39.09
2023-02-23T14:05:29.098Z,39.18
2023-02-23T14:06:33.648Z,39.53
2023-02-23T14:07:41.694Z,38.74
2023-02-23T14:08:52.366Z,38.87
2023-02-23T14:09:57.138Z,38.83
2023-02-23T14:10:58.967Z,38.97
2023-02-23T14:12:19.389Z,38.58
2023-02-23T14:13:21.171Z,38.93
2023-02-23T14:14:32.322Z,39.37
2023-02-23T14:15:39.745Z,39.16
2023-02-23T14:16:41.981Z,38.85
2023-02-23T14:17:58.466Z,38.89
2023-02-23T14:19:11.415Z,38.94
2023-02-23T14:20:29.662Z,39.17
2023-02-23T14:21:37.477Z,38.88
2023-02-23T14:23:11.825Z,38.77
2023-02-23T14:24:17.780Z,38.92
2023-02-23T14:25:34.664Z,38.93
2023-02-23T14:26:39.715Z,39.09
2023-02-23T14:27:45.431Z,39.45
2023-02-23T14:29:19.137Z,39.52
2023-02-23T14:30:22.324Z,38.65
2023-02-23T14:31:25.842Z,38.90
2023-02-23T14:32:29.937Z,38.87
2023-02-23T14:33:34.828Z,38.67
2023-02-23T14:34:47.471Z,38.84
2023-02-23T14:35:49.725Z,39.10
2023-02-23T14:36:56.489Z,39.18
2023-02-23T14:38:35.949Z,39.72
2023-02-23T14:39:44.439Z,39.29
2023-02-23T14:40:49.263Z,39.59